Time;durP1;ratioP1;P1;durP2;ratioP2;P2;SDS_P1;SDS_P2;PMS_P1;PMS_P2;Temp;Humidity;BMP_temperature;BMP_pressure;BME280_temperature;BME280_humidity;BME280_pressure;Samples;Min_cycle;Max_cycle;Signal;HPM_P1;HPM_P2
2022/04/15 00:01:06;;;;;;;8.40;5.78;;;9.20;1.00;;;10.81;50.32;99235.19;5000129;28;129307;-72
2022/04/15 00:03:35;;;;;;;12.20;5.95;;;9.20;1.00;;;10.79;50.34;99227.38;5000063;28;119119;-72
2022/04/15 00:06:08;;;;;;;9.93;5.95;;;9.20;1.00;;;10.81;50.49;99224.34;5000820;28;115549;-73
2022/04/15 00:08:37;;;;;;;9.35;5.78;;;9.20;1.00;;;10.87;50.17;99233.13;4999952;28;129950;-73
2022/04/15 00:11:06;;;;;;;8.48;5.53;;;9.20;1.00;;;10.88;50.21;99234.75;5000088;28;129993;-73
2022/04/15 00:13:35;;;;;;;11.55;5.68;;;9.20;1.00;;;10.90;50.26;99222.44;4999642;28;118785;-73
2022/04/15 00:16:06;;;;;;;12.45;6.05;;;9.20;1.00;;;10.91;50.70;99223.25;5000500;28;116348;-74
2022/04/15 00:18:36;;;;;;;12.48;5.80;;;9.30;1.00;;;10.93;50.92;99231.84;5000088;28;130259;-74
2022/04/15 00:21:06;;;;;;;11.43;5.97;;;9.30;1.00;;;10.99;50.97;99225.16;5001669;28;129471;-74
2022/04/15 00:23:35;;;;;;;11.30;5.88;;;9.40;1.00;;;11.01;50.93;99222.91;5002110;28;118268;-75
2022/04/15 00:26:04;;;;;;;10.02;5.72;;;9.40;1.00;;;11.04;50.99;99222.25;5002206;28;115332;-74
2022/04/15 00:28:33;;;;;;;8.82;5.47;;;9.40;1.00;;;11.07;50.91;99215.41;5001762;28;128757;-75
2022/04/15 00:31:01;;;;;;;9.85;5.88;;;9.40;1.00;;;11.06;51.63;99214.59;4999582;28;130108;-74
2022/04/15 00:33:30;;;;;;;11.68;6.57;;;9.50;1.00;;;11.12;51.48;99220.66;5002174;28;119870;-74
2022/04/15 00:35:58;;;;;;;10.18;5.90;;;9.50;1.00;;;11.11;51.38;99219.06;5000363;28;115203;-73
2022/04/15 00:38:29;;;;;;;9.38;5.53;;;9.40;1.00;;;11.11;51.42;99211.72;4981659;28;130076;-73
2022/04/15 00:40:57;;;;;;;11.40;5.80;;;9.50;1.00;;;11.13;51.44;99220.34;5003455;28;129088;-74
2022/04/15 00:43:25;;;;;;;10.55;5.38;;;9.50;1.00;;;11.11;51.94;99211.72;5003623;28;118898;-73
2022/04/15 00:45:54;;;;;;;10.75;5.28;;;9.50;1.00;;;11.14;51.82;99211.06;5003585;28;115364;-74
2022/04/15 00:48:24;;;;;;;11.18;6.18;;;9.50;1.00;;;11.17;51.69;99206.13;5003144;28;131260;-74
2022/04/15 00:50:52;;;;;;;9.57;5.72;;;9.50;1.00;;;11.18;52.18;99202.28;5002816;28;129636;-74
2022/04/15 00:53:23;;;;;;;10.68;5.90;;;9.50;1.00;;;11.19;52.13;99203.88;5003316;28;119152;-74
2022/04/15 00:55:57;;;;;;;9.65;5.95;;;9.50;1.00;;;11.13;52.86;99197.81;5005455;28;113999;-73
2022/04/15 00:58:27;;;;;;;9.13;5.55;;;9.50;1.00;;;11.09;52.72;99186.78;5002593;28;130385;-72
2022/04/15 01:00:58;;;;;;;10.73;5.78;;;9.50;1.00;;;11.12;52.69;99186.13;5004470;28;128608;-72
2022/04/15 01:03:27;;;;;;;11.80;5.32;;;9.50;1.00;;;11.08;53.12;99185.22;4988382;28;117789;-71
2022/04/15 04:31:22;;;;;;;15.25;7.38;;;10.50;1.00;;;12.41;51.25;99064.59;5002579;28;118673;-78
2022/04/15 04:33:50;;;;;;;17.13;6.97;;;10.60;1.00;;;12.50;50.84;99062.59;5006092;28;115136;-79
2022/04/15 04:36:19;;;;;;;14.48;6.82;;;10.60;1.00;;;12.64;50.59;99064.22;5007641;28;130418;-76
2022/04/15 04:38:49;;;;;;;14.77;7.97;;;10.70;1.00;;;12.73;50.59;99060.28;5004283;28;129739;-71
2022/04/15 04:41:17;;;;;;;12.82;6.95;;;10.80;1.00;;;12.86;50.89;99066.53;5003687;28;118850;-78
2022/04/15 04:43:46;;;;;;;12.38;7.15;;;10.80;1.00;;;12.97;50.04;99068.84;5005586;28;114988;-77
2022/04/15 04:46:15;;;;;;;18.88;7.13;;;10.90;1.00;;;13.02;49.86;99074.84;5007065;28;130074;-78
2022/04/15 04:48:45;;;;;;;12.48;7.15;;;11.00;1.00;;;13.00;49.47;99062.72;5010094;28;129531;-77
2022/04/15 04:51:14;;;;;;;14.23;6.85;;;10.90;1.00;;;13.05;49.55;99065.22;5006902;28;119315;-77
2022/04/15 04:53:42;;;;;;;14.10;7.32;;;11.00;1.00;;;13.16;49.84;99062.84;5004431;28;115158;-75
2022/04/15 04:56:11;;;;;;;14.77;6.70;;;11.10;1.00;;;13.30;50.50;99055.13;5002520;28;129944;-75
2022/04/15 04:58:40;;;;;;;12.68;7.55;;;11.20;1.00;;;13.35;49.61;99048.69;5002719;28;130376;-75
2022/04/15 05:01:11;;;;;;;13.00;7.03;;;11.20;1.00;;;13.50;49.14;99050.72;5000897;28;119364;-78
2022/04/15 05:03:39;;;;;;;13.43;7.07;;;11.30;1.00;;;13.63;48.27;99046.88;5003669;28;115366;-76
2022/04/15 05:06:09;;;;;;;14.85;7.10;;;11.40;1.00;;;13.94;48.30;99034.50;5002430;28;130487;-78
2022/04/15 05:08:37;;;;;;;17.50;8.02;;;11.60;1.00;;;14.02;48.58;99036.31;5004277;28;128800;-76
2022/04/15 05:11:05;;;;;;;19.80;8.32;;;11.70;1.00;;;14.11;48.40;99032.66;5003295;28;119012;-73
2022/04/15 05:13:34;;;;;;;14.85;7.63;;;11.80;1.00;;;14.17;48.07;99031.28;5006299;28;115139;-76
2022/04/15 05:16:02;;;;;;;14.82;7.63;;;11.80;1.00;;;14.27;46.70;99029.97;5001888;28;130032;-74
2022/04/15 05:18:30;;;;;;;14.23;7.90;;;11.90;1.00;;;14.45;47.14;99025.03;5004447;28;129204;-73
2022/04/15 05:20:59;;;;;;;12.15;7.60;;;12.10;1.00;;;14.62;46.94;99030.19;5002787;28;119425;-75
2022/04/15 05:23:29;;;;;;;17.25;8.43;;;12.20;1.00;;;14.79;46.00;99025.53;5004375;28;114598;-73
2022/04/15 05:25:57;;;;;;;15.20;8.57;;;12.30;1.00;;;14.99;45.52;99026.41;5001466;28;129769;-73
2022/04/15 05:28:26;;;;;;;15.05;8.13;;;12.50;1.00;;;15.21;44.54;99030.50;5002140;28;129401;-76
2022/04/15 05:30:55;;;;;;;14.80;7.93;;;12.60;1.00;;;15.53;44.09;99022.22;5002329;28;118982;-76
2022/04/15 05:33:23;;;;;;;17.48;8.02;;;12.90;1.00;;;15.68;43.83;99018.66;5002920;28;115785;-74
2022/04/15 05:35:51;;;;;;;12.80;7.32;;;13.00;1.00;;;15.84;43.52;99015.91;5002004;28;130061;-74
2022/04/15 05:38:20;;;;;;;12.82;7.68;;;13.10;1.00;;;16.08;42.45;99014.03;5003388;28;130867;-75
2022/04/15 05:40:50;;;;;;;12.35;7.40;;;13.40;1.00;;;16.30;41.64;99028.97;5003149;28;118561;-75
2022/04/15 05:43:19;;;;;;;16.73;8.45;;;13.50;1.00;;;16.24;41.52;99028.47;5004513;28;114006;-78
2022/04/15 05:45:47;;;;;;;17.40;8.27;;;13.30;1.00;;;16.42;41.46;99031.53;5003429;28;131032;-77
2022/04/15 05:48:16;;;;;;;16.67;9.07;;;13.40;1.00;;;16.60;41.96;99025.63;5003499;28;130372;-76
2022/04/15 05:50:45;;;;;;;16.98;8.18;;;13.60;1.00;;;16.63;40.90;99028.41;5001222;28;118683;-76
2022/04/15 05:53:14;;;;;;;27.15;9.23;;;13.60;1.00;;;16.72;40.68;99025.44;5001299;28;115587;-76
2022/04/15 05:55:43;;;;;;;17.23;8.18;;;13.70;1.00;;;16.91;40.37;99026.56;5001373;28;129857;-76
2022/04/15 05:58:14;;;;;;;23.58;8.90;;;14.00;1.00;;;17.10;40.54;99022.97;5020622;28;128391;-77
2022/04/15 06:00:43;;;;;;;20.15;8.93;;;14.10;1.00;;;17.15;41.57;99026.19;5002307;28;118706;-77
2022/04/15 06:03:12;;;;;;;24.48;7.97;;;14.10;1.00;;;17.29;41.03;99035.81;5002146;28;115271;-77
2022/04/15 06:05:40;;;;;;;23.10;8.23;;;14.10;1.00;;;17.29;39.64;99035.81;5001577;28;129839;-76
2022/04/15 06:08:09;;;;;;;21.98;9.50;;;14.10;1.00;;;17.22;39.90;99026.31;5000413;28;129380;-76
2022/04/15 06:10:38;;;;;;;20.60;8.60;;;14.00;1.00;;;16.99;40.73;99025.53;5002075;28;118498;-76
2022/04/15 06:13:09;;;;;;;19.75;8.75;;;13.80;1.00;;;17.10;40.91;99023.75;4987267;28;114767;-77
2022/04/15 06:15:41;;;;;;;25.60;9.40;;;14.00;1.00;;;16.95;40.80;99022.72;5003197;28;128892;-75
2022/04/15 06:18:10;;;;;;;19.25;8.63;;;13.80;1.00;;;17.23;40.46;99027.91;4986365;28;129678;-77
2022/04/15 06:20:41;;;;;;;19.83;8.48;;;14.10;1.00;;;17.03;40.72;99027.19;4987141;28;117884;-78
2022/04/15 06:23:10;;;;;;;19.95;9.13;;;13.80;1.00;;;16.98;40.59;99026.69;5020199;28;114588;-70
2022/04/15 06:25:39;;;;;;;18.85;8.82;;;13.70;1.00;;;16.92;40.62;99017.97;4986662;28;129045;-78
2022/04/15 06:28:08;;;;;;;22.48;8.93;;;13.70;1.00;;;16.88;41.01;99023.41;5003195;28;130025;-80
2022/04/15 06:30:39;;;;;;;14.43;7.07;;;13.80;1.00;;;16.61;41.62;99021.69;5001989;28;118512;-80
2022/04/15 06:33:09;;;;;;;15.63;7.45;;;13.60;1.00;;;16.66;41.18;99021.44;5003556;28;115028;-79
2022/04/15 06:35:39;;;;;;;14.50;7.38;;;13.60;1.00;;;16.59;41.57;99018.53;5002712;28;129747;-77
2022/04/15 06:38:08;;;;;;;10.88;6.75;;;13.50;1.00;;;16.45;41.82;99019.84;4985767;28;128615;-78
2022/04/15 06:40:38;;;;;;;12.00;6.93;;;13.50;1.00;;;16.61;41.90;99024.44;5001387;28;119547;-79
2022/04/15 06:43:08;;;;;;;19.40;7.60;;;13.70;1.00;;;16.96;41.21;99007.09;5003437;28;115249;-78
2022/04/15 06:45:38;;;;;;;17.50;7.65;;;14.00;1.00;;;17.18;40.32;99013.69;5001032;28;129930;-78
2022/04/15 06:48:08;;;;;;;16.17;8.07;;;14.10;1.00;;;17.53;39.70;99018.13;4986583;28;128264;-78
2022/04/15 06:50:37;;;;;;;12.73;6.70;;;14.40;1.00;;;18.01;39.16;99017.63;4983330;28;119056;-79
2022/04/15 06:53:06;;;;;;;14.55;6.72;;;14.80;1.00;;;18.28;38.33;99008.16;5003229;28;114467;-78
2022/04/15 06:55:36;;;;;;;13.30;6.75;;;15.10;1.00;;;18.44;37.70;99020.88;5002927;28;130083;-77
2022/04/15 06:58:05;;;;;;;14.23;6.97;;;15.30;1.00;;;18.44;37.89;99020.88;5002571;28;129383;-77
2022/04/15 07:00:36;;;;;;;16.35;7.72;;;15.30;1.00;;;18.56;37.82;99015.13;5002876;28;118396;-77
2022/04/15 07:03:06;;;;;;;12.77;7.28;;;15.30;1.00;;;18.56;37.62;99017.88;5003229;28;114543;-77
2022/04/15 07:05:35;;;;;;;13.57;7.22;;;15.30;1.00;;;18.65;37.37;99021.13;5002262;28;129483;-79
2022/04/15 07:08:05;;;;;;;14.57;7.03;;;15.50;1.00;;;18.74;37.36;99014.50;5001091;28;129455;-76
2022/04/15 07:10:33;;;;;;;11.60;6.55;;;15.50;1.00;;;18.89;37.35;99008.00;5002835;28;117925;-77
2022/04/15 07:13:02;;;;;;;11.07;6.88;;;15.60;1.00;;;18.86;37.42;99009.53;4986680;28;115122;-77
2022/04/15 07:15:30;;;;;;;15.00;6.18;;;15.60;1.00;;;18.79;37.35;99014.16;5002353;28;130159;-79
2022/04/15 07:17:59;;;;;;;12.50;6.53;;;15.60;1.00;;;19.07;37.29;99012.84;4985880;28;129840;-76
2022/04/15 07:20:30;;;;;;;13.00;6.70;;;15.80;1.00;;;19.08;36.57;99006.19;5000905;28;119419;-78
2022/04/15 07:23:00;;;;;;;12.52;6.38;;;15.90;1.00;;;19.24;36.55;99006.69;4986529;28;114510;-78
2022/04/15 07:25:29;;;;;;;9.63;6.38;;;16.00;1.00;;;19.37;36.43;99010.75;5000702;28;130878;-77
2022/04/15 07:27:57;;;;;;;10.55;6.10;;;16.00;1.00;;;19.41;36.33;99005.25;5003365;28;128935;-78
2022/04/15 07:30:27;;;;;;;11.88;6.75;;;16.00;1.00;;;19.51;35.92;98996.28;4999701;28;119023;-76
2022/04/15 07:32:55;;;;;;;13.38;7.03;;;16.00;1.00;;;19.81;34.57;99005.53;5001363;28;115856;-76
2022/04/15 07:35:24;;;;;;;11.50;6.50;;;16.10;1.00;;;20.17;33.89;99005.66;5002357;28;129820;-77
2022/04/15 07:37:53;;;;;;;14.45;6.45;;;16.60;1.00;;;20.28;33.56;99000.97;5002202;28;129599;-77
2022/04/15 07:40:27;;;;;;;10.23;6.50;;;17.00;1.00;;;20.37;33.66;98998.66;5014719;28;119124;-76
2022/04/15 07:42:57;;;;;;;10.18;6.70;;;16.90;1.00;;;20.73;32.32;98990.47;5002546;28;114791;-77
2022/04/15 07:45:26;;;;;;;10.95;6.70;;;17.30;1.00;;;20.97;31.90;98990.88;5000707;28;129824;-77
2022/04/15 07:47:54;;;;;;;14.18;7.10;;;17.40;1.00;;;21.18;31.28;98985.34;5000196;28;129807;-76
2022/04/15 07:50:25;;;;;;;11.88;6.95;;;17.60;1.00;;;21.17;30.98;98982.97;5003962;28;118851;-79
2022/04/15 07:52:59;;;;;;;12.70;7.03;;;17.30;1.00;;;21.08;31.80;98980.59;5004649;28;115901;-77
2022/04/15 07:55:28;;;;;;;12.63;6.93;;;17.20;1.00;;;20.79;32.37;98974.34;4988927;28;130331;-79
2022/04/15 07:57:56;;;;;;;11.13;6.95;;;17.00;1.00;;;20.82;32.01;98977.09;5004074;28;130051;-76
2022/04/15 08:00:25;;;;;;;11.38;6.88;;;17.20;1.00;;;20.44;32.54;98976.63;5003635;28;119253;-77
2022/04/15 08:02:53;;;;;;;14.82;8.05;;;17.20;1.00;;;20.34;32.81;98976.59;5004076;28;116426;-76
2022/04/15 08:05:21;;;;;;;13.68;6.88;;;17.00;1.00;;;20.48;33.35;98977.41;5005334;28;129297;-77
2022/04/15 08:07:50;;;;;;;13.32;7.43;;;17.20;1.00;;;20.11;33.88;98975.72;5003683;28;130848;-77
2022/04/15 08:10:20;;;;;;;14.60;8.48;;;17.10;1.00;;;19.22;34.68;98970.53;5004191;28;118901;-76
2022/04/15 08:12:49;;;;;;;14.68;8.60;;;16.70;1.00;;;19.48;34.53;98971.50;5004265;28;115011;-77
2022/04/15 08:15:17;;;;;;;12.73;7.60;;;16.70;1.00;;;20.13;33.81;98963.53;5003289;28;130357;-77
2022/04/15 08:17:46;;;;;;;13.88;8.35;;;16.80;1.00;;;20.59;33.63;98960.09;4989239;28;128671;-78
2022/04/15 08:20:14;;;;;;;14.68;7.65;;;17.30;1.00;;;19.65;36.65;98970.00;5004011;28;119177;-77
2022/04/15 08:22:42;;;;;;;19.13;8.48;;;17.00;1.00;;;18.98;38.46;98978.22;5004380;28;115919;-76
2022/04/15 08:25:11;;;;;;;13.70;8.45;;;16.40;1.00;;;18.03;39.55;98972.19;5002870;28;130871;-76
2022/04/15 08:27:41;;;;;;;14.10;8.77;;;16.00;1.00;;;18.06;39.66;98973.38;5021975;28;130169;-76
2022/04/15 08:30:10;;;;;;;13.73;8.80;;;15.70;1.00;;;17.46;40.88;98969.44;5004014;28;118708;-75
2022/04/15 08:32:39;;;;;;;14.90;8.65;;;15.50;1.00;;;17.07;42.26;98967.72;5004311;28;115112;-76
2022/04/15 08:35:11;;;;;;;15.40;8.95;;;15.10;1.00;;;17.31;41.47;98973.16;5003072;28;129906;-77
2022/04/15 08:37:40;;;;;;;14.15;9.35;;;15.20;1.00;;;16.96;42.23;98971.47;5005645;28;129476;-77
2022/04/15 08:40:11;;;;;;;15.85;9.15;;;15.10;1.00;;;17.03;42.81;98983.31;5003683;28;119385;-77
2022/04/15 08:42:41;;;;;;;20.52;9.25;;;15.10;1.00;;;16.85;43.27;98979.47;5004451;28;114925;-78
2022/04/15 08:45:12;;;;;;;16.10;8.80;;;15.10;1.00;;;16.60;43.66;98981.78;5003170;28;131232;-77
2022/04/15 08:47:42;;;;;;;19.48;8.20;;;15.00;1.00;;;16.67;43.68;98974.50;5003330;28;129583;-78
2022/04/15 08:50:12;;;;;;;18.25;9.25;;;14.90;1.00;;;16.68;43.42;98987.00;5003519;28;119114;-77
2022/04/15 08:52:40;;;;;;;22.27;10.20;;;14.90;1.00;;;16.87;42.84;98975.22;5003287;28;115766;-79
2022/04/15 08:55:10;;;;;;;15.27;8.45;;;15.00;1.00;;;16.88;43.12;98974.06;5002808;28;130860;-77
2022/04/15 08:57:40;;;;;;;19.73;10.07;;;14.90;1.00;;;16.94;42.56;98971.00;5004936;28;129217;-77
2022/04/15 09:00:10;;;;;;;14.32;9.30;;;14.90;1.00;;;17.02;42.48;98983.69;5002940;28;119815;-77
2022/04/15 09:02:38;;;;;;;15.63;9.43;;;14.90;1.00;;;16.84;43.16;98986.91;5002581;28;115022;-79
2022/04/15 09:05:09;;;;;;;15.32;9.55;;;14.90;1.00;;;16.63;43.38;98989.28;5002755;28;129756;-77
2022/04/15 09:07:38;;;;;;;21.00;10.15;;;14.70;1.00;;;16.53;43.81;98975.03;5002861;28;130486;-78
2022/04/15 09:10:10;;;;;;;16.58;10.25;;;14.70;1.00;;;16.57;43.38;98979.78;5001585;28;118867;-76
2022/04/15 09:12:41;;;;;;;19.75;11.10;;;14.70;1.00;;;16.45;42.97;98978.78;5002724;28;115893;-78
2022/04/15 09:15:14;;;;;;;26.42;12.25;;;14.60;1.00;;;16.20;43.59;98975.56;5004281;28;129921;-78
2022/04/15 09:17:49;;;;;;;19.15;10.98;;;14.50;1.00;;;16.16;43.20;98977.47;5002410;28;130535;-78
2022/04/15 09:20:18;;;;;;;18.40;9.52;;;14.40;1.00;;;16.17;43.35;98982.59;5002263;28;118781;-77
2022/04/15 09:22:47;;;;;;;16.17;10.18;;;14.50;1.00;;;16.45;43.53;98978.00;4999313;28;114876;-78
2022/04/15 09:25:16;;;;;;;16.25;9.73;;;14.60;1.00;;;16.26;43.95;98967.88;5001637;28;130286;-79
2022/04/15 09:27:46;;;;;;;19.20;11.20;;;14.60;1.00;;;16.77;42.84;98975.81;5003781;28;129345;-77
2022/04/15 09:30:14;;;;;;;25.73;12.73;;;14.80;1.00;;;17.10;42.27;98979.91;4971138;28;118541;-76
2022/04/15 09:32:44;;;;;;;24.48;12.07;;;14.90;1.00;;;16.70;43.09;98989.38;5005156;28;116281;-77
2022/04/15 09:35:17;;;;;;;21.85;12.25;;;14.90;1.00;;;17.02;43.32;98986.44;4984485;28;130137;-78
2022/04/15 09:37:46;;;;;;;17.63;10.25;;;15.10;1.00;;;17.32;42.52;98980.22;5003196;28;129529;-78
2022/04/15 09:40:22;;;;;;;15.18;9.75;;;15.20;1.00;;;17.45;41.91;98984.31;5001096;28;118771;-76
2022/04/15 09:42:54;;;;;;;15.00;9.75;;;15.20;1.00;;;17.40;41.97;98982.69;5002468;28;115672;-78
2022/04/15 09:45:25;;;;;;;16.55;10.23;;;15.10;1.00;;;17.51;41.33;98982.84;5004079;28;128954;-78
2022/04/15 09:47:57;;;;;;;17.42;9.98;;;15.10;1.00;;;17.72;41.17;98982.34;5002249;28;130145;-77
2022/04/15 09:50:29;;;;;;;26.33;14.48;;;15.30;1.00;;;17.93;40.45;98976.34;4971205;28;118272;-79
2022/04/15 09:53:10;;;;;;;18.63;12.57;;;15.50;1.00;;;18.01;40.27;98971.75;5001019;28;116516;-76
2022/04/15 09:55:41;;;;;;;19.90;13.45;;;15.60;1.00;;;17.76;40.14;98972.22;5003745;28;128693;-76
2022/04/15 09:58:15;;;;;;;20.85;13.57;;;15.60;1.00;;;17.84;40.14;98972.28;5003754;28;128889;-78
2022/04/15 10:00:48;;;;;;;20.30;14.43;;;15.60;1.00;;;17.55;40.73;98967.22;5004104;28;118597;-78
2022/04/15 10:03:22;;;;;;;25.00;14.25;;;15.40;1.00;;;17.82;39.97;98969.91;5002396;28;115831;-78
2022/04/15 10:05:52;;;;;;;21.58;13.15;;;15.50;1.00;;;18.24;39.41;98959.84;5000560;28;131531;-75
2022/04/15 10:08:22;;;;;;;22.27;13.75;;;15.70;1.00;;;18.60;38.28;98958.22;4986815;28;129785;-75
2022/04/15 10:10:51;;;;;;;19.40;13.52;;;16.00;1.00;;;18.86;37.71;98953.78;5000140;28;119374;-75
2022/04/15 10:13:27;;;;;;;27.08;14.90;;;16.30;1.00;;;19.00;37.28;98956.63;5000894;28;115754;-75
2022/04/15 10:15:56;;;;;;;19.38;12.82;;;16.30;1.00;;;19.06;37.79;98957.09;5003102;28;128968;-75
2022/04/15 10:18:27;;;;;;;20.83;13.15;;;16.40;1.00;;;18.95;37.50;98951.50;5001040;28;129597;-77
2022/04/15 10:20:58;;;;;;;22.17;13.27;;;16.10;1.00;;;18.92;37.51;98952.25;5001973;28;119016;-74
2022/04/15 10:23:27;;;;;;;25.63;15.55;;;16.10;1.00;;;19.01;37.46;98946.41;5002122;28;117125;-76
2022/04/15 10:25:59;;;;;;;25.38;15.05;;;16.20;1.00;;;19.02;37.64;98951.53;5002077;28;129770;-75
2022/04/15 10:28:44;;;;;;;22.40;12.75;;;16.30;1.00;;;18.89;37.33;98947.53;5003675;28;128607;-75
2022/04/15 10:31:16;;;;;;;26.13;14.02;;;16.20;1.00;;;19.00;37.85;98953.09;5004002;28;118242;-76
2022/04/15 10:33:49;;;;;;;22.38;14.00;;;16.20;1.00;;;19.02;37.62;98950.75;5001600;28;116703;-75
2022/04/15 10:36:21;;;;;;;24.33;14.07;;;16.20;1.00;;;18.86;38.19;98959.28;5006633;28;130866;-74
2022/04/15 10:39:16;;;;;;;25.88;14.95;;;16.10;1.00;;;18.73;37.69;98960.69;5009848;28;129618;-73
2022/04/15 10:42:18;;;;;;;23.13;13.75;;;16.30;1.00;;;18.91;37.63;98961.66;5010892;28;117979;-75
2022/04/15 10:44:48;;;;;;;20.50;13.27;;;16.20;1.00;;;19.02;37.71;98965.28;5012347;28;115586;-75
2022/04/15 10:47:29;;;;;;;21.88;13.02;;;16.20;1.00;;;18.82;38.52;98970.22;5010628;28;131587;-76
2022/04/15 10:50:03;;;;;;;24.25;12.98;;;16.00;1.00;;;19.24;37.81;98968.19;5007246;28;130331;-75
2022/04/15 10:52:34;;;;;;;21.27;12.60;;;16.20;1.00;;;19.28;37.82;98958.00;5004590;28;117805;-75
2022/04/15 10:55:04;;;;;;;62.50;28.10;;;16.20;1.00;;;19.01;38.08;98960.97;5005391;28;115161;-75
2022/04/15 10:57:35;;;;;;;35.80;18.38;;;15.90;1.00;;;18.85;38.29;98968.69;5004858;28;129671;-74
2022/04/15 11:03:00;;;;;;;25.05;14.70;;;15.80;1.00;;;18.36;39.80;98969.78;5002090;28;119285;-74
2022/04/15 11:05:55;;;;;;;21.95;13.35;;;15.50;1.00;;;18.36;39.87;98969.78;5001632;28;116213;-75
2022/04/15 11:08:27;;;;;;;21.25;12.82;;;15.60;1.00;;;18.48;40.41;98955.75;5000860;28;130146;-75
2022/04/15 11:11:03;;;;;;;68.63;31.60;;;15.70;1.00;;;18.35;40.30;98962.72;5002660;28;128890;-75
2022/04/15 11:13:49;;;;;;;25.88;13.82;;;15.60;1.00;;;18.26;40.60;98958.31;5000910;28;119132;-75
2022/04/15 11:16:22;;;;;;;35.55;13.18;;;15.60;1.00;;;18.43;41.20;98954.19;4991503;28;116053;-75
2022/04/15 11:18:53;;;;;;;35.72;19.05;;;15.80;1.00;;;18.14;41.39;98958.56;5000517;28;130133;-74
2022/04/15 11:21:23;;;;;;;29.98;13.70;;;15.60;1.00;;;17.96;41.42;98950.91;4999195;28;130060;-73
2022/04/15 11:23:55;;;;;;;24.10;12.85;;;15.40;1.00;;;17.73;42.37;98963.91;4996303;28;117968;-74
2022/04/15 11:26:26;;;;;;;29.25;13.10;;;15.30;1.00;;;17.58;43.00;98955.50;4984786;28;115395;-75
2022/04/15 11:28:57;;;;;;;20.83;12.07;;;15.40;1.00;;;17.28;42.55;98961.00;4980010;28;130915;-72
2022/04/15 11:31:28;;;;;;;17.65;10.25;;;15.20;1.00;;;16.75;42.67;98963.63;4980345;28;129772;-74
2022/04/15 11:34:04;;;;;;;18.17;9.98;;;14.80;1.00;;;16.54;43.69;98960.16;4980769;28;118755;-74
2022/04/15 11:36:36;;;;;;;17.73;10.00;;;14.70;1.00;;;16.45;44.40;98958.81;4984206;28;102780;-74
2022/04/15 11:39:06;;;;;;;18.83;10.82;;;14.60;1.00;;;16.41;45.59;98956.03;4965482;28;129731;-74
2022/04/15 11:41:35;;;;;;;21.45;9.95;;;14.60;1.00;;;16.62;46.21;98960.28;4979984;28;130637;-73
2022/04/15 11:44:07;;;;;;;18.60;11.68;;;14.80;1.00;;;16.72;48.35;98959.69;4982433;28;118436;-78
2022/04/15 11:46:47;;;;;;;17.38;11.45;;;14.70;1.00;;;16.55;49.81;98960.97;4980315;28;116118;-73
2022/04/15 11:49:18;;;;;;;21.15;11.60;;;14.70;1.00;;;16.53;51.42;98969.56;4980493;28;131425;-77
2022/04/15 11:51:49;;;;;;;18.55;11.25;;;14.60;1.00;;;16.32;51.77;98969.16;4982079;28;129215;-73
2022/04/15 11:54:22;;;;;;;23.25;12.00;;;14.40;1.00;;;16.14;52.55;98972.34;4980416;28;118917;-74
2022/04/15 11:56:54;;;;;;;17.73;11.30;;;14.30;1.00;;;15.87;54.24;98976.09;4980782;28;115766;-75
2022/04/15 11:59:24;;;;;;;19.00;11.55;;;14.00;1.00;;;15.58;55.76;98975.44;4981932;28;130412;-74
2022/04/15 12:01:54;;;;;;;18.85;12.25;;;13.80;1.00;;;15.61;58.05;98969.28;4979689;28;129490;-76
2022/04/15 12:04:23;;;;;;;21.42;12.52;;;13.90;1.00;;;15.75;58.42;98963.31;4980286;28;119572;-72
2022/04/15 12:06:51;;;;;;;21.33;13.10;;;14.00;1.00;;;15.94;59.36;98968.81;4981667;28;115724;-70
2022/04/15 12:09:20;;;;;;;17.90;12.52;;;14.10;1.00;;;15.99;60.12;98973.22;4979620;28;130113;-70
2022/04/15 12:11:49;;;;;;;17.95;12.48;;;14.10;1.00;;;15.89;60.67;98962.84;4980902;28;128987;-71
2022/04/15 12:14:19;;;;;;;20.27;12.23;;;14.00;1.00;;;15.75;59.76;98964.13;4981584;28;118337;-71
2022/04/15 12:16:48;;;;;;;21.35;13.82;;;13.80;1.00;;;15.91;60.55;98966.00;4983706;28;114749;-72
2022/04/15 12:19:19;;;;;;;18.38;12.40;;;13.90;1.00;;;16.01;61.04;98962.69;4999520;28;130125;-71
2022/04/15 12:21:48;;;;;;;17.73;12.88;;;14.00;1.00;;;16.03;60.55;98967.81;4999247;28;129576;-72
2022/04/15 12:24:24;;;;;;;19.50;12.90;;;14.00;1.00;;;16.03;60.21;98960.38;5001697;28;119146;-72
2022/04/15 12:26:55;;;;;;;17.17;12.70;;;14.10;1.00;;;16.16;58.08;98958.31;5000087;28;116660;-70
2022/04/15 12:32:17;;;;;;;;;;;13.90;1.00;;;15.75;61.03;98953.19;5000017;28;130085;-72
2022/04/15 12:34:48;;;;;;;16.17;11.90;;;14.00;1.00;;;15.69;60.53;98954.63;5000113;28;119102;-73
2022/04/15 12:37:38;;;;;;;15.60;11.80;;;13.90;1.00;;;15.25;61.38;98957.53;5002142;28;116148;-74
2022/04/15 12:40:10;;;;;;;17.98;11.27;;;13.60;1.00;;;15.25;62.28;98952.09;5002746;28;130183;-71
2022/04/15 12:42:41;;;;;;;18.48;12.18;;;13.50;1.00;;;15.03;63.57;98959.00;5002924;28;129352;-72
2022/04/15 12:45:11;;;;;;;18.90;12.38;;;13.40;1.00;;;14.71;64.65;98962.53;4988761;28;118342;-76
2022/04/15 12:47:40;;;;;;;15.60;11.73;;;13.30;1.00;;;14.89;64.74;98973.09;5005029;28;115056;-71
2022/04/15 12:50:23;;;;;;;21.45;13.93;;;13.30;1.00;;;14.58;66.00;98966.44;5002673;28;129863;-73
2022/04/15 12:52:54;;;;;;;18.73;11.35;;;12.90;1.00;;;14.60;65.84;98971.56;5004381;28;129249;-71
2022/04/15 12:55:28;;;;;;;21.33;12.35;;;13.00;1.00;;;14.36;66.15;98946.00;5004791;28;118839;-70
2022/04/15 12:57:59;;;;;;;22.65;12.23;;;12.80;1.00;;;14.26;67.48;98963.69;5001474;28;115997;-70
2022/04/15 13:00:30;;;;;;;17.00;11.63;;;12.70;1.00;;;14.31;67.59;98957.97;5000882;28;130452;-72
2022/04/15 13:02:58;;;;;;;18.00;11.50;;;12.70;1.00;;;14.31;68.07;98960.69;5002518;28;129285;-72
2022/04/15 13:05:28;;;;;;;20.13;12.27;;;12.70;1.00;;;14.23;68.25;98964.38;5002705;28;118620;-71
2022/04/15 13:07:57;;;;;;;19.92;11.90;;;12.60;1.00;;;14.15;68.94;98962.63;5000849;28;115538;-72
2022/04/15 13:10:25;;;;;;;16.30;11.93;;;12.50;1.00;;;14.14;68.65;98972.72;5004026;28;129630;-72
2022/04/15 13:12:54;;;;;;;16.13;10.73;;;12.50;1.00;;;13.87;68.24;98968.84;5002318;28;131334;-72
2022/04/15 13:15:23;;;;;;;18.40;11.45;;;12.40;1.00;;;13.76;69.71;98973.19;5002624;28;118924;-73
2022/04/15 13:17:51;;;;;;;18.15;11.93;;;12.20;1.00;;;13.66;70.26;98969.03;5004203;28;114458;-72
2022/04/15 13:20:19;;;;;;;20.20;11.60;;;12.00;1.00;;;13.57;70.48;98971.91;5002199;28;130263;-74
2022/04/15 13:22:49;;;;;;;19.65;12.00;;;12.00;1.00;;;13.58;69.79;98983.59;5002401;28;130413;-73
2022/04/15 13:25:18;;;;;;;18.65;11.30;;;12.10;1.00;;;13.32;69.96;98982.00;5002630;28;119662;-76
2022/04/15 13:27:47;;;;;;;18.00;11.90;;;12.00;1.00;;;13.36;70.35;98968.53;4997751;28;115938;-73
2022/04/15 13:30:16;;;;;;;16.15;11.50;;;12.00;1.00;;;13.50;70.49;98971.69;5003654;28;129318;-72
2022/04/15 13:32:44;;;;;;;17.95;11.93;;;12.10;1.00;;;13.54;69.87;98966.31;5002231;28;130133;-71
2022/04/15 13:35:13;;;;;;;15.60;11.27;;;12.10;1.00;;;13.65;69.05;98972.91;5002307;28;119083;-70
2022/04/15 13:37:41;;;;;;;16.63;11.95;;;12.10;1.00;;;13.78;69.22;98969.00;5000458;28;116628;-73
2022/04/15 13:40:13;;;;;;;15.75;11.63;;;12.30;1.00;;;14.03;69.11;98972.41;5020647;28;129657;-71
2022/04/15 13:42:42;;;;;;;17.08;11.35;;;12.40;1.00;;;13.90;69.71;98972.81;5002078;28;129700;-76
2022/04/15 13:45:11;;;;;;;17.88;12.38;;;12.40;1.00;;;14.03;69.49;98966.97;5002316;28;119472;-75
2022/04/15 13:47:39;;;;;;;18.63;12.75;;;12.40;1.00;;;13.85;69.90;98965.66;5003517;28;114744;-74
2022/04/15 13:50:09;;;;;;;16.20;11.35;;;12.20;1.00;;;13.76;70.34;98973.19;5001757;28;130153;-70
2022/04/15 13:58:23;;;;;;;15.75;11.35;;;12.10;1.00;;;13.55;72.41;98962.47;5000279;28;115656;-69
2022/04/15 14:00:51;;;;;;;18.13;12.38;;;12.10;1.00;;;13.50;72.66;98963.50;5001488;28;130208;-73